»·PEaware :: N198ME KMCC-KRDD

N198ME :: KMCC-KRDD

FLIGHT INFORMATION

Flight Status: Arrived
Operator: Privately registered:
United States
More flights under this callsign
Pilot: Juan S. (26712)
Aircraft: CESSNA 172 SKYHAWK
(C172)
More flights by this aircraft type
Origin: KMCC McClellan
United States
Destination: KRDD Redding Mun
United States
More flights between these airports :: More routes between these airports
Route: EYPOF V23 RBL V25 HOMAN
File this flight plan on PilotEdge
Remarks:
Altitude:
(Current/Filed)
6,000ft
Speed:
(Current/Filed)
110kts
Departed: 19-Mar-20 08:10 PM
Arrived: 19-Mar-20 09:29 PM
Distance/Time
Traveled:
118nm/1:19
Distance/Time
To Go:
Arrived

Flight Plot

Page will automatically refresh every two minutes.

Flight plan parsing failed; only flown route is shown


Map Options




Map Legend


Flown Route
Filed Route
Departure Airport
Arrival Airport
Navaid (VOR, NDB)
Fix

Horizontal Profiles

Position Reports

Time Latitude Longitude Heading Altitude Ground
Speed
19-Mar-20 19:58 38.652583 -121.402515 0 69ft 0kts
19-Mar-20 19:59 38.652583 -121.402515 0 69ft 0kts
19-Mar-20 20:00 38.652583 -121.402515 0 69ft 0kts
19-Mar-20 20:01 38.652583 -121.402515 0 69ft 0kts
19-Mar-20 20:02 38.652583 -121.402515 0 69ft 0kts
19-Mar-20 20:03 38.652583 -121.402515 0 69ft 0kts
19-Mar-20 20:04 38.652583 -121.402515 0 69ft 0kts
19-Mar-20 20:05 38.652583 -121.402515 0 69ft 0kts
19-Mar-20 20:06 38.653823 -121.401782 149 69ft 0kts
19-Mar-20 20:07 38.653823 -121.401782 149 69ft 0kts
19-Mar-20 20:08 38.654781 -121.400650 10 69ft 23kts
19-Mar-20 20:09 38.672941 -121.407184 319 946ft 76kts
19-Mar-20 20:10 38.688580 -121.427036 314 1989ft 81kts
19-Mar-20 20:11 38.703019 -121.448944 310 2986ft 82kts
19-Mar-20 20:12 38.718326 -121.470933 317 3920ft 84kts
19-Mar-20 20:13 38.733757 -121.493118 320 4810ft 84kts
19-Mar-20 20:14 38.749694 -121.515857 315 5687ft 85kts
19-Mar-20 20:15 38.769894 -121.540777 316 6027ft 119kts
19-Mar-20 20:16 38.791226 -121.575099 309 6013ft 125kts
19-Mar-20 20:17 38.813855 -121.609038 313 5999ft 125kts
19-Mar-20 20:18 38.837083 -121.642460 313 5987ft 125kts
19-Mar-20 20:19 38.860178 -121.675684 313 5984ft 124kts
19-Mar-20 20:20 38.891090 -121.693814 344 5986ft 128kts
19-Mar-20 20:21 38.925630 -121.706795 346 5988ft 130kts
19-Mar-20 20:22 38.960680 -121.719095 346 5990ft 130kts
19-Mar-20 20:23 38.994445 -121.734816 317 5992ft 132kts
19-Mar-20 20:24 39.026754 -121.756390 341 5993ft 131kts
19-Mar-20 20:25 39.061386 -121.771888 342 5993ft 132kts
19-Mar-20 20:26 39.096110 -121.787260 342 5993ft 132kts
19-Mar-20 20:27 39.130761 -121.802588 342 5992ft 132kts
19-Mar-20 20:28 39.165427 -121.817961 342 5992ft 132kts
19-Mar-20 20:29 39.200055 -121.833406 342 5993ft 132kts
19-Mar-20 20:30 39.234620 -121.848814 342 5993ft 131kts
19-Mar-20 20:31 39.268939 -121.864104 342 5993ft 130kts
19-Mar-20 20:33 39.302972 -121.879275 342 5993ft 129kts
19-Mar-20 20:34 39.336887 -121.894417 342 5993ft 128kts
19-Mar-20 20:35 39.371633 -121.896080 2 5993ft 127kts
19-Mar-20 20:36 39.407012 -121.898808 353 5995ft 127kts
19-Mar-20 20:37 39.441837 -121.906940 348 5997ft 127kts
19-Mar-20 20:38 39.476381 -121.917461 346 5999ft 127kts
19-Mar-20 20:39 39.509644 -121.933527 338 6001ft 128kts
19-Mar-20 20:40 39.542546 -121.951045 338 6002ft 128kts
19-Mar-20 20:41 39.575553 -121.968039 339 6002ft 128kts
19-Mar-20 20:42 39.608536 -121.984990 339 6002ft 128kts
19-Mar-20 20:43 39.641591 -122.001916 339 6002ft 128kts
19-Mar-20 20:44 39.674604 -122.018899 339 6002ft 128kts
19-Mar-20 20:45 39.707650 -122.035942 339 6002ft 128kts
19-Mar-20 20:46 39.740740 -122.053000 339 6002ft 128kts
19-Mar-20 20:47 39.773632 -122.069985 339 6002ft 128kts
19-Mar-20 20:48 39.806741 -122.087106 339 6002ft 128kts
19-Mar-20 20:49 39.839804 -122.104223 339 6002ft 128kts
19-Mar-20 20:50 39.872826 -122.121335 339 5998ft 128kts
19-Mar-20 20:51 39.906156 -122.138639 339 5993ft 131kts
19-Mar-20 20:51 39.934708 -122.153479 339 5987ft 132kts
19-Mar-20 20:52 39.968961 -122.171285 339 5980ft 133kts
19-Mar-20 20:54 40.008910 -122.191945 339 5974ft 132kts
19-Mar-20 20:54 40.037659 -122.206443 340 5974ft 132kts
19-Mar-20 20:55 40.072402 -122.222180 2 5970ft 131kts
19-Mar-20 20:56 40.108517 -122.215150 0 5975ft 131kts
19-Mar-20 20:57 40.145152 -122.215816 2 5974ft 132kts
19-Mar-20 20:58 40.180855 -122.205481 14 5974ft 131kts
19-Mar-20 20:59 40.216252 -122.193567 15 5974ft 131kts
19-Mar-20 21:00 40.251482 -122.181578 14 5974ft 131kts
19-Mar-20 21:01 40.286823 -122.169478 15 5974ft 131kts
19-Mar-20 21:02 40.322233 -122.157314 15 5975ft 131kts
19-Mar-20 21:03 40.357474 -122.145189 14 5971ft 131kts
19-Mar-20 21:04 40.392728 -122.133052 14 5967ft 130kts
19-Mar-20 21:05 40.428228 -122.120836 15 5963ft 136kts
19-Mar-20 21:06 40.465168 -122.108075 15 5958ft 137kts
19-Mar-20 21:07 40.502028 -122.095334 15 5956ft 137kts
19-Mar-20 21:08 40.538114 -122.082852 15 5983ft 131kts
19-Mar-20 21:09 40.573363 -122.070656 15 5984ft 131kts
19-Mar-20 21:10 40.608706 -122.058348 15 5982ft 131kts
19-Mar-20 21:11 40.643414 -122.043549 14 5989ft 131kts
19-Mar-20 21:12 40.678540 -122.030390 17 5991ft 131kts
19-Mar-20 21:13 40.709707 -122.041523 309 6004ft 132kts
19-Mar-20 21:14 40.734284 -122.078502 312 5806ft 134kts
19-Mar-20 21:15 40.757630 -122.116510 301 5775ft 133kts
19-Mar-20 21:16 40.769132 -122.163137 284 5796ft 134kts
19-Mar-20 21:17 40.780936 -122.209857 288 5816ft 134kts
19-Mar-20 21:18 40.788492 -122.258215 275 5829ft 135kts
19-Mar-20 21:19 40.768828 -122.290868 189 5591ft 135kts
19-Mar-20 21:20 40.732746 -122.296987 191 4590ft 129kts
19-Mar-20 21:21 40.700939 -122.293977 171 4398ft 110kts
19-Mar-20 21:22 40.669599 -122.293358 186 3602ft 114kts
19-Mar-20 21:23 40.638315 -122.293387 178 3045ft 113kts
19-Mar-20 21:24 40.607883 -122.293056 183 2451ft 108kts
19-Mar-20 21:25 40.578335 -122.294448 185 1809ft 106kts
19-Mar-20 21:27 40.544426 -122.294946 173 1014ft 101kts
19-Mar-20 21:27 40.523528 -122.294961 179 663ft 70kts
19-Mar-20 21:28 40.514244 -122.295878 266 499ft 9kts
19-Mar-20 21:29 40.512411 -122.296357 217 497ft 7kts
19-Mar-20 21:30 40.511899 -122.298621 267 499ft 0kts
19-Mar-20 21:31 40.511899 -122.298621 267 499ft 0kts
19-Mar-20 21:32 40.511899 -122.298621 267 499ft 0kts
19-Mar-20 21:33 40.511899 -122.298621 267 499ft 0kts
19-Mar-20 21:34 40.511899 -122.298621 267 499ft 0kts
19-Mar-20 21:35 40.511899 -122.298621 267 499ft 0kts
19-Mar-20 21:36 40.511899 -122.298621 267 499ft 0kts
19-Mar-20 21:37 40.511899 -122.298621 267 499ft 0kts
19-Mar-20 21:38 40.511899 -122.298621 267 499ft 0kts
19-Mar-20 21:39 40.511899 -122.298621 267 499ft 0kts
19-Mar-20 21:40 40.511899 -122.298621 267 499ft 0kts
19-Mar-20 21:41 40.511899 -122.298621 267 499ft 0kts
19-Mar-20 21:42 40.511899 -122.298621 267 499ft 0kts

Navigation Log

Ident Type
Flight plan parsing failed, navigation log unavailable